sensor_id;sensor_type;location;lat;lon;timestamp;temperature;humidity
11221;DHT22;8517;53.546;10.104;2023-12-20T00:02:14;8.80;99.90
11221;DHT22;8517;53.546;10.104;2023-12-20T00:04:41;8.80;99.90
11221;DHT22;8517;53.546;10.104;2023-12-20T00:07:08;8.80;99.90
11221;DHT22;8517;53.546;10.104;2023-12-20T00:09:35;8.70;99.90
11221;DHT22;8517;53.546;10.104;2023-12-20T00:12:03;8.70;99.90
11221;DHT22;8517;53.546;10.104;2023-12-20T00:14:31;8.60;99.90
11221;DHT22;8517;53.546;10.104;2023-12-20T00:16:58;8.60;99.90
11221;DHT22;8517;53.546;10.104;2023-12-20T00:19:25;8.60;99.90
11221;DHT22;8517;53.546;10.104;2023-12-20T00:21:51;8.60;99.90
11221;DHT22;8517;53.546;10.104;2023-12-20T00:24:18;8.60;99.90
11221;DHT22;8517;53.546;10.104;2023-12-20T00:26:46;8.60;99.90
11221;DHT22;8517;53.546;10.104;2023-12-20T00:29:14;8.50;99.90
11221;DHT22;8517;53.546;10.104;2023-12-20T00:31:41;8.60;99.90
11221;DHT22;8517;53.546;10.104;2023-12-20T00:34:07;8.50;99.90
11221;DHT22;8517;53.546;10.104;2023-12-20T00:36:34;8.50;99.90
11221;DHT22;8517;53.546;10.104;2023-12-20T00:39:01;8.40;99.90
11221;DHT22;8517;53.546;10.104;2023-12-20T00:41:28;8.50;99.90
11221;DHT22;8517;53.546;10.104;2023-12-20T00:43:55;8.40;99.90
11221;DHT22;8517;53.546;10.104;2023-12-20T00:46:23;8.40;99.90
11221;DHT22;8517;53.546;10.104;2023-12-20T00:48:50;8.40;99.90
11221;DHT22;8517;53.546;10.104;2023-12-20T00:51:17;8.40;99.90
11221;DHT22;8517;53.546;10.104;2023-12-20T00:53:44;8.50;99.90
11221;DHT22;8517;53.546;10.104;2023-12-20T00:56:14;8.40;99.90
11221;DHT22;8517;53.546;10.104;2023-12-20T00:58:41;8.40;99.90
11221;DHT22;8517;53.546;10.104;2023-12-20T01:01:08;8.50;99.90
11221;DHT22;8517;53.546;10.104;2023-12-20T01:03:37;8.50;99.90
11221;DHT22;8517;53.546;10.104;2023-12-20T01:06:04;8.50;99.90
11221;DHT22;8517;53.546;10.104;2023-12-20T01:08:31;8.50;99.90
11221;DHT22;8517;53.546;10.104;2023-12-20T01:11:00;8.50;99.90
11221;DHT22;8517;53.546;10.104;2023-12-20T01:13:26;8.60;99.90
11221;DHT22;8517;53.546;10.104;2023-12-20T01:15:53;8.60;99.90
11221;DHT22;8517;53.546;10.104;2023-12-20T01:18:21;8.60;99.90
11221;DHT22;8517;53.546;10.104;2023-12-20T01:20:49;8.60;99.90
11221;DHT22;8517;53.546;10.104;2023-12-20T01:23:15;8.60;99.90
11221;DHT22;8517;53.546;10.104;2023-12-20T01:25:42;8.60;99.90
11221;DHT22;8517;53.546;10.104;2023-12-20T01:28:09;8.60;99.90
11221;DHT22;8517;53.546;10.104;2023-12-20T01:30:36;8.60;99.90
11221;DHT22;8517;53.546;10.104;2023-12-20T01:33:03;8.50;99.90
11221;DHT22;8517;53.546;10.104;2023-12-20T01:35:29;8.60;99.90
11221;DHT22;8517;53.546;10.104;2023-12-20T01:37:58;8.50;99.90
11221;DHT22;8517;53.546;10.104;2023-12-20T01:40:27;8.50;99.90
11221;DHT22;8517;53.546;10.104;2023-12-20T01:43:00;8.50;99.90
11221;DHT22;8517;53.546;10.104;2023-12-20T01:45:28;8.40;99.90
11221;DHT22;8517;53.546;10.104;2023-12-20T01:47:55;8.40;99.90
11221;DHT22;8517;53.546;10.104;2023-12-20T01:50:23;8.40;99.90
11221;DHT22;8517;53.546;10.104;2023-12-20T01:52:50;8.30;99.90
11221;DHT22;8517;53.546;10.104;2023-12-20T01:55:19;8.30;99.90
11221;DHT22;8517;53.546;10.104;2023-12-20T01:57:47;8.30;99.90
11221;DHT22;8517;53.546;10.104;2023-12-20T02:00:14;8.30;99.90
11221;DHT22;8517;53.546;10.104;2023-12-20T02:02:41;8.30;99.90
11221;DHT22;8517;53.546;10.104;2023-12-20T02:05:11;8.30;99.90
11221;DHT22;8517;53.546;10.104;2023-12-20T02:07:37;8.30;99.90
11221;DHT22;8517;53.546;10.104;2023-12-20T02:10:05;8.30;99.90
11221;DHT22;8517;53.546;10.104;2023-12-20T02:12:33;8.30;99.90
11221;DHT22;8517;53.546;10.104;2023-12-20T02:15:00;8.30;99.90
11221;DHT22;8517;53.546;10.104;2023-12-20T02:17:28;8.30;99.90
11221;DHT22;8517;53.546;10.104;2023-12-20T02:19:56;8.30;99.90
11221;DHT22;8517;53.546;10.104;2023-12-20T02:22:24;8.30;99.90
11221;DHT22;8517;53.546;10.104;2023-12-20T02:24:51;8.30;99.90
11221;DHT22;8517;53.546;10.104;2023-12-20T02:27:18;8.30;99.90
11221;DHT22;8517;53.546;10.104;2023-12-20T02:29:47;8.30;99.90
11221;DHT22;8517;53.546;10.104;2023-12-20T02:32:14;8.30;99.90
11221;DHT22;8517;53.546;10.104;2023-12-20T02:34:41;8.20;99.90
11221;DHT22;8517;53.546;10.104;2023-12-20T02:37:07;8.30;99.90
11221;DHT22;8517;53.546;10.104;2023-12-20T02:39:35;8.20;99.90
11221;DHT22;8517;53.546;10.104;2023-12-20T02:42:03;8.20;99.90
11221;DHT22;8517;53.546;10.104;2023-12-20T02:44:29;8.30;99.90
11221;DHT22;8517;53.546;10.104;2023-12-20T02:46:56;8.30;99.90
11221;DHT22;8517;53.546;10.104;2023-12-20T02:49:23;8.30;99.90
11221;DHT22;8517;53.546;10.104;2023-12-20T02:51:50;8.30;99.90
11221;DHT22;8517;53.546;10.104;2023-12-20T02:54:17;8.30;99.90
11221;DHT22;8517;53.546;10.104;2023-12-20T02:56:45;8.40;99.90
11221;DHT22;8517;53.546;10.104;2023-12-20T02:59:11;8.40;99.90
11221;DHT22;8517;53.546;10.104;2023-12-20T03:01:42;8.40;99.90
11221;DHT22;8517;53.546;10.104;2023-12-20T03:04:09;8.40;99.90
11221;DHT22;8517;53.546;10.104;2023-12-20T03:06:36;8.40;99.90
11221;DHT22;8517;53.546;10.104;2023-12-20T03:09:03;8.50;99.90
11221;DHT22;8517;53.546;10.104;2023-12-20T03:11:29;8.50;99.90
11221;DHT22;8517;53.546;10.104;2023-12-20T03:13:58;8.50;99.90
11221;DHT22;8517;53.546;10.104;2023-12-20T03:16:25;8.50;99.90
11221;DHT22;8517;53.546;10.104;2023-12-20T03:18:51;8.50;99.90
11221;DHT22;8517;53.546;10.104;2023-12-20T03:21:18;8.50;99.90
11221;DHT22;8517;53.546;10.104;2023-12-20T03:23:45;8.50;99.90
11221;DHT22;8517;53.546;10.104;2023-12-20T03:26:12;8.50;99.90
11221;DHT22;8517;53.546;10.104;2023-12-20T03:28:38;8.50;99.90
11221;DHT22;8517;53.546;10.104;2023-12-20T03:31:07;8.50;99.90
11221;DHT22;8517;53.546;10.104;2023-12-20T03:33:33;8.50;99.90
11221;DHT22;8517;53.546;10.104;2023-12-20T03:36:00;8.50;99.90
11221;DHT22;8517;53.546;10.104;2023-12-20T03:38:27;8.50;99.90
11221;DHT22;8517;53.546;10.104;2023-12-20T03:40:54;8.50;99.90
11221;DHT22;8517;53.546;10.104;2023-12-20T03:43:20;8.50;99.90
11221;DHT22;8517;53.546;10.104;2023-12-20T03:45:47;8.40;99.90
11221;DHT22;8517;53.546;10.104;2023-12-20T03:48:15;8.50;99.90
11221;DHT22;8517;53.546;10.104;2023-12-20T03:50:42;8.50;99.90
11221;DHT22;8517;53.546;10.104;2023-12-20T03:53:09;8.40;99.90
11221;DHT22;8517;53.546;10.104;2023-12-20T03:55:36;8.50;99.90
11221;DHT22;8517;53.546;10.104;2023-12-20T03:58:03;8.50;99.90
11221;DHT22;8517;53.546;10.104;2023-12-20T04:00:29;8.50;99.90
11221;DHT22;8517;53.546;10.104;2023-12-20T04:02:56;8.50;99.90
11221;DHT22;8517;53.546;10.104;2023-12-20T04:05:25;8.50;99.90
11221;DHT22;8517;53.546;10.104;2023-12-20T04:07:51;8.50;99.90
11221;DHT22;8517;53.546;10.104;2023-12-20T04:10:18;8.50;99.90
11221;DHT22;8517;53.546;10.104;2023-12-20T04:12:45;8.50;99.90
11221;DHT22;8517;53.546;10.104;2023-12-20T04:15:11;8.50;99.90
11221;DHT22;8517;53.546;10.104;2023-12-20T04:17:38;8.50;99.90
11221;DHT22;8517;53.546;10.104;2023-12-20T04:20:06;8.50;99.90
11221;DHT22;8517;53.546;10.104;2023-12-20T04:22:34;8.50;99.90
11221;DHT22;8517;53.546;10.104;2023-12-20T04:25:01;8.50;99.90
11221;DHT22;8517;53.546;10.104;2023-12-20T04:27:28;8.60;99.90
11221;DHT22;8517;53.546;10.104;2023-12-20T04:29:55;8.60;99.90
11221;DHT22;8517;53.546;10.104;2023-12-20T04:32:22;8.50;99.90
11221;DHT22;8517;53.546;10.104;2023-12-20T04:34:49;8.60;99.90
11221;DHT22;8517;53.546;10.104;2023-12-20T04:37:15;8.50;99.90
11221;DHT22;8517;53.546;10.104;2023-12-20T04:39:44;8.50;99.90
11221;DHT22;8517;53.546;10.104;2023-12-20T04:42:10;8.60;99.90
11221;DHT22;8517;53.546;10.104;2023-12-20T04:44:37;8.50;99.90
11221;DHT22;8517;53.546;10.104;2023-12-20T04:47:04;8.50;99.90
11221;DHT22;8517;53.546;10.104;2023-12-20T04:49:31;8.50;99.90
11221;DHT22;8517;53.546;10.104;2023-12-20T04:51:57;8.50;99.90
11221;DHT22;8517;53.546;10.104;2023-12-20T04:54:24;8.60;99.90
11221;DHT22;8517;53.546;10.104;2023-12-20T04:56:52;8.50;99.90
11221;DHT22;8517;53.546;10.104;2023-12-20T04:59:19;8.50;99.90
11221;DHT22;8517;53.546;10.104;2023-12-20T05:01:46;8.60;99.90
11221;DHT22;8517;53.546;10.104;2023-12-20T05:04:12;8.60;99.90
11221;DHT22;8517;53.546;10.104;2023-12-20T05:06:39;8.60;99.90
11221;DHT22;8517;53.546;10.104;2023-12-20T05:09:06;8.60;99.90
11221;DHT22;8517;53.546;10.104;2023-12-20T05:11:34;8.60;99.90
11221;DHT22;8517;53.546;10.104;2023-12-20T05:14:02;8.60;99.90
11221;DHT22;8517;53.546;10.104;2023-12-20T05:16:29;8.60;99.90
11221;DHT22;8517;53.546;10.104;2023-12-20T05:18:56;8.70;99.90
11221;DHT22;8517;53.546;10.104;2023-12-20T05:21:24;8.70;99.90
11221;DHT22;8517;53.546;10.104;2023-12-20T05:23:50;8.70;99.90
11221;DHT22;8517;53.546;10.104;2023-12-20T05:26:17;8.70;99.90
11221;DHT22;8517;53.546;10.104;2023-12-20T05:28:44;8.70;99.90
11221;DHT22;8517;53.546;10.104;2023-12-20T05:31:12;8.80;99.90
11221;DHT22;8517;53.546;10.104;2023-12-20T05:33:39;8.70;99.90
11221;DHT22;8517;53.546;10.104;2023-12-20T05:36:06;8.70;99.90
11221;DHT22;8517;53.546;10.104;2023-12-20T05:38:36;8.80;99.90
11221;DHT22;8517;53.546;10.104;2023-12-20T05:41:03;8.80;99.90
11221;DHT22;8517;53.546;10.104;2023-12-20T05:43:30;8.80;99.90
11221;DHT22;8517;53.546;10.104;2023-12-20T05:45:57;8.80;99.90
11221;DHT22;8517;53.546;10.104;2023-12-20T05:48:25;8.80;99.90
11221;DHT22;8517;53.546;10.104;2023-12-20T05:50:51;8.80;99.90
11221;DHT22;8517;53.546;10.104;2023-12-20T05:53:18;8.80;99.90
11221;DHT22;8517;53.546;10.104;2023-12-20T05:55:45;8.90;99.90
11221;DHT22;8517;53.546;10.104;2023-12-20T05:58:12;8.80;99.90
11221;DHT22;8517;53.546;10.104;2023-12-20T06:00:39;8.80;99.90
11221;DHT22;8517;53.546;10.104;2023-12-20T06:03:05;8.80;99.90
11221;DHT22;8517;53.546;10.104;2023-12-20T06:05:33;8.80;99.90
11221;DHT22;8517;53.546;10.104;2023-12-20T06:08:00;8.80;99.90
11221;DHT22;8517;53.546;10.104;2023-12-20T06:10:28;8.70;99.90
11221;DHT22;8517;53.546;10.104;2023-12-20T06:12:55;8.70;99.90
11221;DHT22;8517;53.546;10.104;2023-12-20T06:15:24;8.70;99.90
11221;DHT22;8517;53.546;10.104;2023-12-20T06:17:51;8.70;99.90
11221;DHT22;8517;53.546;10.104;2023-12-20T06:20:17;8.70;99.90
11221;DHT22;8517;53.546;10.104;2023-12-20T06:22:48;8.70;99.90
11221;DHT22;8517;53.546;10.104;2023-12-20T06:25:15;8.70;99.90
11221;DHT22;8517;53.546;10.104;2023-12-20T06:27:42;8.70;99.90
11221;DHT22;8517;53.546;10.104;2023-12-20T06:30:09;8.70;99.90
11221;DHT22;8517;53.546;10.104;2023-12-20T06:32:36;8.70;99.90
11221;DHT22;8517;53.546;10.104;2023-12-20T06:35:04;8.70;99.90
11221;DHT22;8517;53.546;10.104;2023-12-20T06:37:31;8.70;99.90
11221;DHT22;8517;53.546;10.104;2023-12-20T06:39:59;8.70;99.90
11221;DHT22;8517;53.546;10.104;2023-12-20T06:42:26;8.70;99.90
11221;DHT22;8517;53.546;10.104;2023-12-20T06:44:53;8.70;99.90
11221;DHT22;8517;53.546;10.104;2023-12-20T06:47:20;8.70;99.90
11221;DHT22;8517;53.546;10.104;2023-12-20T06:49:47;8.70;99.90
11221;DHT22;8517;53.546;10.104;2023-12-20T06:52:14;8.70;99.90
11221;DHT22;8517;53.546;10.104;2023-12-20T06:54:41;8.80;99.90
11221;DHT22;8517;53.546;10.104;2023-12-20T06:57:16;8.80;99.90
11221;DHT22;8517;53.546;10.104;2023-12-20T06:59:45;8.80;99.90
11221;DHT22;8517;53.546;10.104;2023-12-20T07:02:12;8.90;99.90
11221;DHT22;8517;53.546;10.104;2023-12-20T07:04:47;8.80;99.90
11221;DHT22;8517;53.546;10.104;2023-12-20T07:07:18;8.80;99.90
11221;DHT22;8517;53.546;10.104;2023-12-20T07:09:45;8.80;99.90
11221;DHT22;8517;53.546;10.104;2023-12-20T07:12:13;8.80;99.90
11221;DHT22;8517;53.546;10.104;2023-12-20T07:14:40;8.80;99.90
11221;DHT22;8517;53.546;10.104;2023-12-20T07:17:07;8.80;99.90
11221;DHT22;8517;53.546;10.104;2023-12-20T07:19:37;8.80;99.90
11221;DHT22;8517;53.546;10.104;2023-12-20T07:22:04;8.80;99.90
11221;DHT22;8517;53.546;10.104;2023-12-20T07:24:30;8.80;99.90
11221;DHT22;8517;53.546;10.104;2023-12-20T07:26:57;8.90;99.90
11221;DHT22;8517;53.546;10.104;2023-12-20T07:29:26;8.90;99.90
11221;DHT22;8517;53.546;10.104;2023-12-20T07:31:53;8.90;99.90
11221;DHT22;8517;53.546;10.104;2023-12-20T07:34:20;8.90;99.90
11221;DHT22;8517;53.546;10.104;2023-12-20T07:36:47;8.90;99.90
11221;DHT22;8517;53.546;10.104;2023-12-20T07:39:14;8.90;99.90
11221;DHT22;8517;53.546;10.104;2023-12-20T07:41:41;8.90;99.90
11221;DHT22;8517;53.546;10.104;2023-12-20T07:44:07;8.90;99.90
11221;DHT22;8517;53.546;10.104;2023-12-20T07:46:36;8.90;99.90
11221;DHT22;8517;53.546;10.104;2023-12-20T07:49:03;9.00;99.90
11221;DHT22;8517;53.546;10.104;2023-12-20T07:51:30;8.90;99.90
11221;DHT22;8517;53.546;10.104;2023-12-20T07:53:57;9.00;99.90
11221;DHT22;8517;53.546;10.104;2023-12-20T07:56:23;9.10;99.90
11221;DHT22;8517;53.546;10.104;2023-12-20T07:58:50;9.10;99.90
11221;DHT22;8517;53.546;10.104;2023-12-20T08:01:17;9.10;99.90
11221;DHT22;8517;53.546;10.104;2023-12-20T08:03:45;9.20;99.90
11221;DHT22;8517;53.546;10.104;2023-12-20T08:06:12;9.20;99.90
11221;DHT22;8517;53.546;10.104;2023-12-20T08:08:39;9.20;99.90
11221;DHT22;8517;53.546;10.104;2023-12-20T08:11:06;9.20;99.90
11221;DHT22;8517;53.546;10.104;2023-12-20T08:13:33;9.20;99.90
11221;DHT22;8517;53.546;10.104;2023-12-20T08:15:59;9.20;99.90
11221;DHT22;8517;53.546;10.104;2023-12-20T08:18:28;9.20;99.90
11221;DHT22;8517;53.546;10.104;2023-12-20T08:20:56;9.20;99.90
11221;DHT22;8517;53.546;10.104;2023-12-20T08:23:23;9.30;99.90
11221;DHT22;8517;53.546;10.104;2023-12-20T08:25:50;9.30;99.90
11221;DHT22;8517;53.546;10.104;2023-12-20T08:28:16;9.30;99.90
11221;DHT22;8517;53.546;10.104;2023-12-20T08:30:43;9.40;99.90
11221;DHT22;8517;53.546;10.104;2023-12-20T08:33:10;9.40;99.90
11221;DHT22;8517;53.546;10.104;2023-12-20T08:35:38;9.40;99.90
11221;DHT22;8517;53.546;10.104;2023-12-20T08:38:06;9.50;99.90
11221;DHT22;8517;53.546;10.104;2023-12-20T08:40:33;9.50;99.90
11221;DHT22;8517;53.546;10.104;2023-12-20T08:43:01;9.50;99.90
11221;DHT22;8517;53.546;10.104;2023-12-20T08:45:27;9.50;99.90
11221;DHT22;8517;53.546;10.104;2023-12-20T08:47:56;9.50;99.90
11221;DHT22;8517;53.546;10.104;2023-12-20T08:50:26;9.60;99.90
11221;DHT22;8517;53.546;10.104;2023-12-20T08:52:52;9.60;99.90
11221;DHT22;8517;53.546;10.104;2023-12-20T08:55:20;9.60;99.90
11221;DHT22;8517;53.546;10.104;2023-12-20T08:57:47;9.70;99.90
11221;DHT22;8517;53.546;10.104;2023-12-20T09:00:15;9.80;99.90
11221;DHT22;8517;53.546;10.104;2023-12-20T09:02:42;9.80;99.90
11221;DHT22;8517;53.546;10.104;2023-12-20T09:05:08;9.70;99.90
11221;DHT22;8517;53.546;10.104;2023-12-20T09:07:35;9.80;99.90
11221;DHT22;8517;53.546;10.104;2023-12-20T09:10:02;9.80;99.90
11221;DHT22;8517;53.546;10.104;2023-12-20T09:12:30;9.70;99.90
11221;DHT22;8517;53.546;10.104;2023-12-20T09:14:57;9.70;99.90
11221;DHT22;8517;53.546;10.104;2023-12-20T09:17:24;9.60;99.90
11221;DHT22;8517;53.546;10.104;2023-12-20T09:19:51;9.60;99.90
11221;DHT22;8517;53.546;10.104;2023-12-20T09:22:19;9.50;99.90
11221;DHT22;8517;53.546;10.104;2023-12-20T09:24:46;9.30;99.90
11221;DHT22;8517;53.546;10.104;2023-12-20T09:27:13;9.30;99.90
11221;DHT22;8517;53.546;10.104;2023-12-20T09:29:41;9.20;99.90
11221;DHT22;8517;53.546;10.104;2023-12-20T09:32:10;9.10;99.90
11221;DHT22;8517;53.546;10.104;2023-12-20T09:34:37;9.00;99.90
11221;DHT22;8517;53.546;10.104;2023-12-20T09:37:04;8.90;99.90
11221;DHT22;8517;53.546;10.104;2023-12-20T09:39:33;8.80;99.90
11221;DHT22;8517;53.546;10.104;2023-12-20T09:42:01;8.70;99.90
11221;DHT22;8517;53.546;10.104;2023-12-20T09:44:29;8.60;99.90
11221;DHT22;8517;53.546;10.104;2023-12-20T09:46:57;8.50;99.90
11221;DHT22;8517;53.546;10.104;2023-12-20T09:49:25;8.40;99.90
11221;DHT22;8517;53.546;10.104;2023-12-20T09:51:54;8.40;99.90
11221;DHT22;8517;53.546;10.104;2023-12-20T09:54:21;8.40;99.90
11221;DHT22;8517;53.546;10.104;2023-12-20T09:56:49;8.40;99.90
11221;DHT22;8517;53.546;10.104;2023-12-20T09:59:16;8.40;99.90
11221;DHT22;8517;53.546;10.104;2023-12-20T10:01:44;8.40;99.90
11221;DHT22;8517;53.546;10.104;2023-12-20T10:04:13;8.40;99.90
11221;DHT22;8517;53.546;10.104;2023-12-20T10:06:40;8.40;99.90
11221;DHT22;8517;53.546;10.104;2023-12-20T10:09:07;8.40;99.90
11221;DHT22;8517;53.546;10.104;2023-12-20T10:11:35;8.40;99.90
11221;DHT22;8517;53.546;10.104;2023-12-20T10:14:03;8.40;99.90
11221;DHT22;8517;53.546;10.104;2023-12-20T10:16:41;8.40;99.90
11221;DHT22;8517;53.546;10.104;2023-12-20T10:19:08;8.40;99.90
11221;DHT22;8517;53.546;10.104;2023-12-20T10:21:36;8.40;99.90
11221;DHT22;8517;53.546;10.104;2023-12-20T10:24:03;8.40;99.90
11221;DHT22;8517;53.546;10.104;2023-12-20T10:26:30;8.40;99.90
11221;DHT22;8517;53.546;10.104;2023-12-20T10:29:00;8.40;99.90
11221;DHT22;8517;53.546;10.104;2023-12-20T10:31:28;8.40;99.90
11221;DHT22;8517;53.546;10.104;2023-12-20T10:33:56;8.40;99.90
11221;DHT22;8517;53.546;10.104;2023-12-20T10:36:23;8.40;99.90
11221;DHT22;8517;53.546;10.104;2023-12-20T10:38:53;8.40;99.90
11221;DHT22;8517;53.546;10.104;2023-12-20T10:41:25;8.40;99.90
11221;DHT22;8517;53.546;10.104;2023-12-20T10:43:54;8.50;99.90
11221;DHT22;8517;53.546;10.104;2023-12-20T10:46:22;8.50;99.90
11221;DHT22;8517;53.546;10.104;2023-12-20T10:48:51;8.50;99.90
11221;DHT22;8517;53.546;10.104;2023-12-20T10:51:20;8.60;99.90
11221;DHT22;8517;53.546;10.104;2023-12-20T10:53:48;8.60;99.90
11221;DHT22;8517;53.546;10.104;2023-12-20T10:56:18;8.60;99.90
11221;DHT22;8517;53.546;10.104;2023-12-20T10:58:45;8.70;99.90
11221;DHT22;8517;53.546;10.104;2023-12-20T11:01:13;8.70;99.90
11221;DHT22;8517;53.546;10.104;2023-12-20T11:03:49;8.80;99.90
11221;DHT22;8517;53.546;10.104;2023-12-20T11:06:27;8.90;99.90
11221;DHT22;8517;53.546;10.104;2023-12-20T11:09:04;8.90;99.90
11221;DHT22;8517;53.546;10.104;2023-12-20T11:11:46;9.00;99.90
11221;DHT22;8517;53.546;10.104;2023-12-20T11:14:22;9.00;99.90
11221;DHT22;8517;53.546;10.104;2023-12-20T11:16:49;9.00;99.90
11221;DHT22;8517;53.546;10.104;2023-12-20T11:19:17;8.90;99.90
11221;DHT22;8517;53.546;10.104;2023-12-20T11:21:46;8.90;99.90
11221;DHT22;8517;53.546;10.104;2023-12-20T11:24:13;8.90;99.90
11221;DHT22;8517;53.546;10.104;2023-12-20T11:26:47;8.90;99.90
11221;DHT22;8517;53.546;10.104;2023-12-20T11:29:33;8.90;99.90
11221;DHT22;8517;53.546;10.104;2023-12-20T11:32:01;8.90;99.90
11221;DHT22;8517;53.546;10.104;2023-12-20T11:34:29;8.90;99.90
11221;DHT22;8517;53.546;10.104;2023-12-20T11:36:58;8.90;99.90
11221;DHT22;8517;53.546;10.104;2023-12-20T11:39:26;8.90;99.90
11221;DHT22;8517;53.546;10.104;2023-12-20T11:41:55;8.90;99.90
11221;DHT22;8517;53.546;10.104;2023-12-20T11:44:25;8.90;99.90
11221;DHT22;8517;53.546;10.104;2023-12-20T11:46:53;8.90;99.90
11221;DHT22;8517;53.546;10.104;2023-12-20T11:49:23;8.90;99.90
11221;DHT22;8517;53.546;10.104;2023-12-20T11:51:54;8.80;99.90
11221;DHT22;8517;53.546;10.104;2023-12-20T11:54:21;8.80;99.90
11221;DHT22;8517;53.546;10.104;2023-12-20T11:56:48;8.70;99.90
11221;DHT22;8517;53.546;10.104;2023-12-20T11:59:16;8.70;99.90
11221;DHT22;8517;53.546;10.104;2023-12-20T12:01:48;8.60;99.90
11221;DHT22;8517;53.546;10.104;2023-12-20T12:04:15;8.60;99.90
11221;DHT22;8517;53.546;10.104;2023-12-20T12:06:43;8.70;99.90
11221;DHT22;8517;53.546;10.104;2023-12-20T12:09:10;8.70;99.90
11221;DHT22;8517;53.546;10.104;2023-12-20T12:11:37;8.70;99.90
11221;DHT22;8517;53.546;10.104;2023-12-20T12:14:04;8.70;99.90
11221;DHT22;8517;53.546;10.104;2023-12-20T12:16:32;8.70;99.90
11221;DHT22;8517;53.546;10.104;2023-12-20T12:18:59;8.70;99.90
11221;DHT22;8517;53.546;10.104;2023-12-20T12:21:26;8.80;99.90
11221;DHT22;8517;53.546;10.104;2023-12-20T12:23:53;8.70;99.90
11221;DHT22;8517;53.546;10.104;2023-12-20T12:26:20;8.80;99.90
11221;DHT22;8517;53.546;10.104;2023-12-20T12:28:47;8.80;99.90
11221;DHT22;8517;53.546;10.104;2023-12-20T12:31:14;8.90;99.90
11221;DHT22;8517;53.546;10.104;2023-12-20T12:33:43;8.90;99.90
11221;DHT22;8517;53.546;10.104;2023-12-20T12:36:10;9.00;99.90
11221;DHT22;8517;53.546;10.104;2023-12-20T12:38:37;9.10;99.90
11221;DHT22;8517;53.546;10.104;2023-12-20T12:41:04;9.20;99.90
11221;DHT22;8517;53.546;10.104;2023-12-20T12:43:32;9.20;99.90
11221;DHT22;8517;53.546;10.104;2023-12-20T12:45:59;9.30;99.90
11221;DHT22;8517;53.546;10.104;2023-12-20T12:48:26;9.30;99.90
11221;DHT22;8517;53.546;10.104;2023-12-20T12:50:54;9.40;99.90
11221;DHT22;8517;53.546;10.104;2023-12-20T12:53:25;9.60;99.90
11221;DHT22;8517;53.546;10.104;2023-12-20T12:55:52;9.70;99.90
11221;DHT22;8517;53.546;10.104;2023-12-20T12:58:19;9.80;99.90
11221;DHT22;8517;53.546;10.104;2023-12-20T13:00:46;9.80;99.90
11221;DHT22;8517;53.546;10.104;2023-12-20T13:03:13;9.80;99.90
11221;DHT22;8517;53.546;10.104;2023-12-20T13:05:40;9.70;99.90
11221;DHT22;8517;53.546;10.104;2023-12-20T13:08:08;9.70;99.90
11221;DHT22;8517;53.546;10.104;2023-12-20T13:10:37;9.80;99.90
11221;DHT22;8517;53.546;10.104;2023-12-20T13:13:04;9.80;99.90
11221;DHT22;8517;53.546;10.104;2023-12-20T13:15:44;9.80;99.90
11221;DHT22;8517;53.546;10.104;2023-12-20T13:18:16;9.90;99.90
11221;DHT22;8517;53.546;10.104;2023-12-20T13:20:43;9.90;99.90
11221;DHT22;8517;53.546;10.104;2023-12-20T13:23:11;9.90;99.90
11221;DHT22;8517;53.546;10.104;2023-12-20T13:25:39;10.00;99.90
11221;DHT22;8517;53.546;10.104;2023-12-20T13:28:06;10.00;99.90
11221;DHT22;8517;53.546;10.104;2023-12-20T13:30:33;10.00;99.90
11221;DHT22;8517;53.546;10.104;2023-12-20T13:33:01;10.00;99.90
11221;DHT22;8517;53.546;10.104;2023-12-20T13:35:28;9.90;99.90
11221;DHT22;8517;53.546;10.104;2023-12-20T13:37:54;9.90;99.90
11221;DHT22;8517;53.546;10.104;2023-12-20T13:40:25;10.00;99.90
11221;DHT22;8517;53.546;10.104;2023-12-20T13:42:54;10.00;99.90
11221;DHT22;8517;53.546;10.104;2023-12-20T13:45:21;10.00;99.90
11221;DHT22;8517;53.546;10.104;2023-12-20T13:47:50;9.90;99.90
11221;DHT22;8517;53.546;10.104;2023-12-20T13:50:18;9.80;99.90
11221;DHT22;8517;53.546;10.104;2023-12-20T13:52:45;9.80;99.90
11221;DHT22;8517;53.546;10.104;2023-12-20T13:55:17;9.70;99.90
11221;DHT22;8517;53.546;10.104;2023-12-20T13:57:49;9.60;99.90
11221;DHT22;8517;53.546;10.104;2023-12-20T14:00:16;9.50;99.90
11221;DHT22;8517;53.546;10.104;2023-12-20T14:02:44;9.50;99.90
11221;DHT22;8517;53.546;10.104;2023-12-20T14:05:12;9.40;99.90
11221;DHT22;8517;53.546;10.104;2023-12-20T14:07:39;9.30;99.90
11221;DHT22;8517;53.546;10.104;2023-12-20T14:10:07;9.30;99.90
11221;DHT22;8517;53.546;10.104;2023-12-20T14:12:35;9.20;99.90
11221;DHT22;8517;53.546;10.104;2023-12-20T14:15:06;9.30;99.90
11221;DHT22;8517;53.546;10.104;2023-12-20T14:17:36;9.20;99.90
11221;DHT22;8517;53.546;10.104;2023-12-20T14:20:07;9.20;99.90
11221;DHT22;8517;53.546;10.104;2023-12-20T14:22:35;9.20;99.90
11221;DHT22;8517;53.546;10.104;2023-12-20T14:25:05;9.20;99.90
11221;DHT22;8517;53.546;10.104;2023-12-20T14:27:32;9.20;99.90
11221;DHT22;8517;53.546;10.104;2023-12-20T14:29:59;9.20;99.90
11221;DHT22;8517;53.546;10.104;2023-12-20T14:32:27;9.20;99.90
11221;DHT22;8517;53.546;10.104;2023-12-20T14:34:54;9.20;99.90
11221;DHT22;8517;53.546;10.104;2023-12-20T14:37:21;9.20;99.90
11221;DHT22;8517;53.546;10.104;2023-12-20T14:39:48;9.10;99.90
11221;DHT22;8517;53.546;10.104;2023-12-20T14:42:14;9.10;99.90
11221;DHT22;8517;53.546;10.104;2023-12-20T14:44:41;9.10;99.90
11221;DHT22;8517;53.546;10.104;2023-12-20T14:47:08;9.10;99.90
11221;DHT22;8517;53.546;10.104;2023-12-20T14:49:37;9.10;99.90
11221;DHT22;8517;53.546;10.104;2023-12-20T14:52:04;9.10;99.90
11221;DHT22;8517;53.546;10.104;2023-12-20T14:54:31;9.10;99.90
11221;DHT22;8517;53.546;10.104;2023-12-20T14:56:57;9.10;99.90
11221;DHT22;8517;53.546;10.104;2023-12-20T14:59:24;9.10;99.90
11221;DHT22;8517;53.546;10.104;2023-12-20T15:01:51;9.10;99.90
11221;DHT22;8517;53.546;10.104;2023-12-20T15:05:05;9.00;99.90
11221;DHT22;8517;53.546;10.104;2023-12-20T15:07:17;9.00;99.90
11221;DHT22;8517;53.546;10.104;2023-12-20T15:09:44;9.00;99.90
11221;DHT22;8517;53.546;10.104;2023-12-20T15:12:13;9.00;99.90
11221;DHT22;8517;53.546;10.104;2023-12-20T15:14:40;9.10;99.90
11221;DHT22;8517;53.546;10.104;2023-12-20T15:17:10;9.00;99.90
11221;DHT22;8517;53.546;10.104;2023-12-20T15:19:37;9.00;99.90
11221;DHT22;8517;53.546;10.104;2023-12-20T15:22:04;9.00;99.90
11221;DHT22;8517;53.546;10.104;2023-12-20T15:24:32;9.00;99.90
11221;DHT22;8517;53.546;10.104;2023-12-20T15:27:06;9.00;99.90
11221;DHT22;8517;53.546;10.104;2023-12-20T15:29:33;9.00;99.90
11221;DHT22;8517;53.546;10.104;2023-12-20T15:32:00;9.00;99.90
11221;DHT22;8517;53.546;10.104;2023-12-20T15:34:27;9.10;99.90
11221;DHT22;8517;53.546;10.104;2023-12-20T15:36:54;9.00;99.90
11221;DHT22;8517;53.546;10.104;2023-12-20T15:39:21;9.00;99.90
11221;DHT22;8517;53.546;10.104;2023-12-20T15:41:49;9.00;99.90
11221;DHT22;8517;53.546;10.104;2023-12-20T15:44:16;9.00;99.90
11221;DHT22;8517;53.546;10.104;2023-12-20T15:46:43;8.90;99.90
11221;DHT22;8517;53.546;10.104;2023-12-20T15:49:09;8.90;99.90